ACA311 CYUL-CYVR
Flight info
| Callsign | ACA311 |
|---|---|
| Flight time | N/A |
| Altitude | 36000 |
| Route | DCT KESKA DCT BIPKO DCT IPSAK DCT OMEGI DCT RADEN DCT 49N080W 5130N09000W 5230N10000W 52N110W 51N115W DCT BOOTH CANUC5 |
| Aircraft | B77W/H-SDE1E2E3FGHIJ2J3J4J5M1RWXY/LB1D1 |
Departure
| Time | 2026-05-05 22:24 |
|---|---|
| Airport | Montreal / Pierre Elliott Trudeau International Airport (CYUL) |
Arrival
| Time | N/A |
|---|---|
| Airport | Vancouver International Airport (CYVR) |
| Time | Latitude | Longitude | Altitude | Speed | Heading |
|---|---|---|---|---|---|
| 2026-05-05 21:51 | 45.45934 | -73.75042 | 131 ft | 0 kts | 177° |
| 2026-05-05 22:11 | 45.45949 | -73.75043 | 132 ft | 4 kts | 177° |
| 2026-05-05 22:11 | 45.45973 | -73.75044 | 132 ft | 4 kts | 171° |
| 2026-05-05 22:12 | 45.45993 | -73.75051 | 132 ft | 4 kts | 137° |
| 2026-05-05 22:12 | 45.46003 | -73.75069 | 132 ft | 4 kts | 93° |
| 2026-05-05 22:12 | 45.46001 | -73.75106 | 132 ft | 4 kts | 83° |
| 2026-05-05 22:12 | 45.46000 | -73.75122 | 132 ft | 0 kts | 86° |
| 2026-05-05 22:15 | 45.46003 | -73.75062 | 132 ft | 11 kts | 86° |
| 2026-05-05 22:15 | 45.45988 | -73.74932 | 132 ft | 15 kts | 104° |
| 2026-05-05 22:16 | 45.45970 | -73.74777 | 132 ft | 16 kts | 111° |
| 2026-05-05 22:16 | 45.45955 | -73.74624 | 132 ft | 15 kts | 84° |
| 2026-05-05 22:16 | 45.45984 | -73.74482 | 132 ft | 15 kts | 71° |
| 2026-05-05 22:16 | 45.45974 | -73.74345 | 132 ft | 14 kts | 106° |
| 2026-05-05 22:17 | 45.46007 | -73.74223 | 132 ft | 14 kts | 41° |
| 2026-05-05 22:17 | 45.46076 | -73.74138 | 132 ft | 13 kts | 41° |
| 2026-05-05 22:17 | 45.46142 | -73.74056 | 132 ft | 12 kts | 41° |
| 2026-05-05 22:17 | 45.46204 | -73.73975 | 132 ft | 12 kts | 43° |
| 2026-05-05 22:18 | 45.46269 | -73.73886 | 132 ft | 18 kts | 43° |
| 2026-05-05 22:18 | 45.46390 | -73.73725 | 132 ft | 29 kts | 43° |
| 2026-05-05 22:18 | 45.46527 | -73.73543 | 132 ft | 25 kts | 43° |
| 2026-05-05 22:18 | 45.46649 | -73.73381 | 132 ft | 23 kts | 43° |
| 2026-05-05 22:19 | 45.46763 | -73.73230 | 132 ft | 22 kts | 42° |
| 2026-05-05 22:19 | 45.46873 | -73.73086 | 132 ft | 21 kts | 43° |
| 2026-05-05 22:19 | 45.46977 | -73.72947 | 132 ft | 20 kts | 43° |
| 2026-05-05 22:19 | 45.47078 | -73.72817 | 132 ft | 19 kts | 42° |
| 2026-05-05 22:20 | 45.47174 | -73.72693 | 132 ft | 18 kts | 42° |
| 2026-05-05 22:20 | 45.47266 | -73.72576 | 132 ft | 17 kts | 42° |
| 2026-05-05 22:20 | 45.47352 | -73.72466 | 132 ft | 16 kts | 42° |
| 2026-05-05 22:20 | 45.47434 | -73.72360 | 132 ft | 15 kts | 43° |
| 2026-05-05 22:21 | 45.47509 | -73.72259 | 132 ft | 14 kts | 43° |
| 2026-05-05 22:21 | 45.47580 | -73.72165 | 132 ft | 13 kts | 43° |
| 2026-05-05 22:21 | 45.47646 | -73.72077 | 132 ft | 13 kts | 43° |
| 2026-05-05 22:21 | 45.47710 | -73.71992 | 132 ft | 12 kts | 43° |
| 2026-05-05 22:22 | 45.47770 | -73.71911 | 132 ft | 12 kts | 43° |
| 2026-05-05 22:22 | 45.47806 | -73.71815 | 132 ft | 12 kts | 106° |
| 2026-05-05 22:22 | 45.47783 | -73.71762 | 132 ft | 2 kts | 127° |
| 2026-05-05 22:22 | 45.47775 | -73.71745 | 132 ft | 2 kts | 127° |
| 2026-05-05 22:23 | 45.47757 | -73.71714 | 132 ft | 9 kts | 131° |
| 2026-05-05 22:23 | 45.47691 | -73.71659 | 132 ft | 12 kts | 176° |
| 2026-05-05 22:23 | 45.47612 | -73.71715 | 132 ft | 14 kts | 219° |
| 2026-05-05 22:23 | 45.47490 | -73.71876 | 132 ft | 49 kts | 223° |
| 2026-05-05 22:24 | 45.47031 | -73.72476 | 132 ft | 128 kts | 222° |
| 2026-05-05 22:24 | 45.46209 | -73.73555 | 229 ft | 180 kts | 223° |
| 2026-05-05 22:24 | 45.45255 | -73.74809 | 856 ft | 192 kts | 223° |
| 2026-05-05 22:24 | 45.44281 | -73.76074 | 1747 ft | 186 kts | 223° |
| 2026-05-05 22:25 | 45.43344 | -73.77106 | 2797 ft | 167 kts | 221° |
| 2026-05-05 22:25 | 45.42486 | -73.78194 | 3557 ft | 167 kts | 223° |
| 2026-05-05 22:25 | 45.41569 | -73.79343 | 3905 ft | 189 kts | 224° |
| 2026-05-05 22:25 | 45.40836 | -73.81042 | 4097 ft | 217 kts | 247° |
| 2026-05-05 22:26 | 45.40572 | -73.83234 | 4648 ft | 231 kts | 258° |
| 2026-05-05 22:26 | 45.40371 | -73.85529 | 5407 ft | 237 kts | 259° |
| 2026-05-05 22:26 | 45.40186 | -73.87873 | 6292 ft | 236 kts | 259° |
| 2026-05-05 22:26 | 45.40010 | -73.90179 | 7120 ft | 239 kts | 259° |
| 2026-05-05 22:27 | 45.39992 | -73.92590 | 7772 ft | 252 kts | 272° |
| 2026-05-05 22:27 | 45.40577 | -73.94963 | 8719 ft | 255 kts | 286° |
| 2026-05-05 22:27 | 45.41486 | -73.97172 | 9478 ft | 266 kts | 298° |
| 2026-05-05 22:27 | 45.42851 | -73.99030 | 9930 ft | 276 kts | 309° |
| 2026-05-05 22:28 | 45.44362 | -74.00752 | 10004 ft | 282 kts | 311° |
| 2026-05-05 22:28 | 45.45973 | -74.02578 | 10000 ft | 311 kts | 311° |
| 2026-05-05 22:28 | 45.47735 | -74.04640 | 9994 ft | 343 kts | 311° |
| 2026-05-05 22:28 | 45.49623 | -74.06881 | 9980 ft | 359 kts | 312° |
| 2026-05-05 22:29 | 45.51552 | -74.09192 | 9974 ft | 364 kts | 311° |
| 2026-05-05 22:29 | 45.53450 | -74.11528 | 9978 ft | 365 kts | 310° |
| 2026-05-05 22:29 | 45.55337 | -74.13933 | 9976 ft | 363 kts | 310° |
| 2026-05-05 22:29 | 45.57220 | -74.16357 | 10300 ft | 368 kts | 310° |
| 2026-05-05 22:30 | 45.59117 | -74.18814 | 11300 ft | 367 kts | 309° |
| 2026-05-05 22:30 | 45.61004 | -74.21284 | 12384 ft | 366 kts | 308° |
| 2026-05-05 22:30 | 45.62876 | -74.23744 | 13471 ft | 369 kts | 308° |
| 2026-05-05 22:30 | 45.64796 | -74.26260 | 14231 ft | 378 kts | 308° |
| 2026-05-05 22:31 | 45.66750 | -74.28821 | 15055 ft | 384 kts | 308° |
| 2026-05-05 22:31 | 45.68726 | -74.31414 | 15936 ft | 387 kts | 308° |
| 2026-05-05 22:31 | 45.70557 | -74.34200 | 16685 ft | 380 kts | 298° |
| 2026-05-05 22:31 | 45.71821 | -74.37476 | 17306 ft | 374 kts | 284° |
| 2026-05-05 22:32 | 45.72531 | -74.41015 | 18148 ft | 369 kts | 276° |
| 2026-05-05 22:32 | 45.72996 | -74.44570 | 18991 ft | 368 kts | 273° |
| 2026-05-05 22:32 | 45.73320 | -74.48209 | 19772 ft | 369 kts | 270° |
| 2026-05-05 22:32 | 45.73547 | -74.51875 | 20475 ft | 372 kts | 269° |
| 2026-05-05 22:33 | 45.73749 | -74.55582 | 21162 ft | 376 kts | 270° |
| 2026-05-05 22:33 | 45.73822 | -74.56842 | 21396 ft | 377 kts | 270° |
| 2026-05-05 22:33 | 45.73966 | -74.59255 | 21853 ft | 379 kts | 270° |
| 2026-05-05 22:33 | 45.74204 | -74.63023 | 22505 ft | 383 kts | 270° |
| 2026-05-05 22:34 | 45.74453 | -74.66829 | 23163 ft | 386 kts | 271° |
| 2026-05-05 22:34 | 45.74705 | -74.70668 | 23763 ft | 389 kts | 271° |
| 2026-05-05 22:34 | 45.74958 | -74.74532 | 24412 ft | 391 kts | 271° |
| 2026-05-05 22:34 | 45.75216 | -74.78437 | 24982 ft | 395 kts | 271° |
| 2026-05-05 22:35 | 45.75474 | -74.82361 | 25583 ft | 397 kts | 271° |
| 2026-05-05 22:35 | 45.75800 | -74.86302 | 26126 ft | 402 kts | 274° |
| 2026-05-05 22:35 | 45.76326 | -74.90255 | 26643 ft | 407 kts | 277° |
| 2026-05-05 22:35 | 45.76963 | -74.94168 | 27178 ft | 410 kts | 278° |
| 2026-05-05 22:36 | 45.77621 | -74.98153 | 27693 ft | 411 kts | 277° |
| 2026-05-05 22:36 | 45.78244 | -75.02165 | 28156 ft | 414 kts | 277° |
| 2026-05-05 22:36 | 45.78863 | -75.06218 | 28591 ft | 417 kts | 277° |
| 2026-05-05 22:36 | 45.79481 | -75.10290 | 29043 ft | 419 kts | 277° |
| 2026-05-05 22:37 | 45.80104 | -75.14384 | 29433 ft | 422 kts | 277° |
| 2026-05-05 22:37 | 45.80727 | -75.18503 | 29838 ft | 424 kts | 276° |
| 2026-05-05 22:37 | 45.81348 | -75.22631 | 30328 ft | 423 kts | 276° |
| 2026-05-05 22:37 | 45.81963 | -75.26728 | 30992 ft | 418 kts | 276° |
| 2026-05-05 22:38 | 45.82569 | -75.30785 | 31624 ft | 414 kts | 276° |
| 2026-05-05 22:38 | 45.82771 | -75.32141 | 31793 ft | 413 kts | 276° |
| 2026-05-05 22:38 | 45.83146 | -75.34659 | 32068 ft | 413 kts | 276° |
| 2026-05-05 22:38 | 45.83742 | -75.38672 | 32547 ft | 411 kts | 276° |
| 2026-05-05 22:39 | 45.84335 | -75.42669 | 33058 ft | 408 kts | 276° |
| 2026-05-05 22:39 | 45.84922 | -75.46631 | 33535 ft | 405 kts | 276° |
| 2026-05-05 22:39 | 45.85504 | -75.50569 | 33979 ft | 402 kts | 276° |
| 2026-05-05 22:39 | 45.86084 | -75.54491 | 34306 ft | 403 kts | 276° |
| 2026-05-05 22:40 | 45.86676 | -75.58432 | 34579 ft | 405 kts | 277° |
| 2026-05-05 22:40 | 45.87314 | -75.62371 | 34887 ft | 404 kts | 277° |
| 2026-05-05 22:40 | 45.87936 | -75.66311 | 35196 ft | 405 kts | 276° |
| 2026-05-05 22:40 | 45.88533 | -75.70262 | 35462 ft | 405 kts | 276° |
| 2026-05-05 22:41 | 45.89113 | -75.74229 | 35684 ft | 406 kts | 276° |
| 2026-05-05 22:41 | 45.90263 | -75.82180 | 35713 ft | 406 kts | 276° |
| 2026-05-05 22:42 | 45.91406 | -75.90127 | 35712 ft | 405 kts | 276° |
| 2026-05-05 22:42 | 45.92541 | -75.97993 | 35711 ft | 404 kts | 276° |
| 2026-05-05 22:42 | 45.93424 | -76.01847 | 35715 ft | 412 kts | 287° |
| 2026-05-05 22:43 | 45.94943 | -76.05373 | 35711 ft | 421 kts | 299° |
| 2026-05-05 22:43 | 45.96921 | -76.08317 | 35711 ft | 431 kts | 308° |
| 2026-05-05 22:44 | 46.01687 | -76.13684 | 35703 ft | 439 kts | 313° |
| 2026-05-05 22:44 | 46.06583 | -76.19041 | 35702 ft | 444 kts | 311° |
| 2026-05-05 22:45 | 46.11397 | -76.24630 | 35700 ft | 443 kts | 310° |
| 2026-05-05 22:45 | 46.16096 | -76.30280 | 35700 ft | 442 kts | 310° |
| 2026-05-05 22:46 | 46.20808 | -76.35979 | 35700 ft | 442 kts | 310° |
| 2026-05-05 22:46 | 46.25549 | -76.41655 | 35699 ft | 443 kts | 310° |
| 2026-05-05 22:47 | 46.30283 | -76.47378 | 35699 ft | 444 kts | 309° |
| 2026-05-05 22:47 | 46.35018 | -76.53138 | 35698 ft | 445 kts | 309° |
| 2026-05-05 22:48 | 46.39750 | -76.58917 | 35698 ft | 445 kts | 309° |
| 2026-05-05 22:48 | 46.40990 | -76.60434 | 35698 ft | 444 kts | 309° |
| 2026-05-05 22:49 | 46.45687 | -76.66189 | 35695 ft | 445 kts | 309° |
| 2026-05-05 22:49 | 46.50415 | -76.71999 | 35695 ft | 446 kts | 309° |
| 2026-05-05 22:50 | 46.55150 | -76.77831 | 35693 ft | 447 kts | 309° |
| 2026-05-05 22:50 | 46.59894 | -76.83688 | 35683 ft | 447 kts | 309° |
| 2026-05-05 22:51 | 46.64646 | -76.89558 | 35686 ft | 449 kts | 309° |
| 2026-05-05 22:51 | 46.69376 | -76.95431 | 35687 ft | 449 kts | 309° |
| 2026-05-05 22:52 | 46.74127 | -77.01343 | 35683 ft | 448 kts | 309° |
| 2026-05-05 22:52 | 46.78876 | -77.07265 | 35681 ft | 449 kts | 309° |
| 2026-05-05 22:53 | 46.83627 | -77.13201 | 35677 ft | 450 kts | 309° |
| 2026-05-05 22:53 | 46.85776 | -77.15891 | 35676 ft | 450 kts | 309° |
| 2026-05-05 22:54 | 46.90525 | -77.21849 | 35671 ft | 450 kts | 309° |
| 2026-05-05 22:54 | 46.95245 | -77.27781 | 35667 ft | 450 kts | 309° |
| 2026-05-05 22:55 | 46.99999 | -77.33771 | 35665 ft | 451 kts | 309° |
| 2026-05-05 22:55 | 47.04756 | -77.39779 | 35662 ft | 453 kts | 309° |
| 2026-05-05 22:56 | 47.09536 | -77.45832 | 35658 ft | 454 kts | 309° |
| 2026-05-05 22:56 | 47.14322 | -77.51907 | 35654 ft | 455 kts | 309° |
| 2026-05-05 22:57 | 47.19113 | -77.58002 | 35651 ft | 456 kts | 310° |
| 2026-05-05 22:57 | 47.23880 | -77.64084 | 35647 ft | 457 kts | 310° |
| 2026-05-05 22:58 | 47.28691 | -77.70237 | 35644 ft | 459 kts | 310° |
| 2026-05-05 22:58 | 47.31006 | -77.73202 | 35641 ft | 460 kts | 310° |
| 2026-05-05 22:59 | 47.35833 | -77.79405 | 35648 ft | 460 kts | 310° |
| 2026-05-05 22:59 | 47.40672 | -77.85624 | 35645 ft | 462 kts | 310° |
| 2026-05-05 23:00 | 47.47951 | -77.95027 | 35635 ft | 465 kts | 310° |
| 2026-05-05 23:00 | 47.52812 | -78.01331 | 35634 ft | 465 kts | 310° |
| 2026-05-05 23:01 | 47.57690 | -78.07650 | 35633 ft | 467 kts | 310° |
| 2026-05-05 23:01 | 47.62568 | -78.14005 | 35625 ft | 467 kts | 311° |
| 2026-05-05 23:02 | 47.66624 | -78.19298 | 35629 ft | 467 kts | 310° |
| 2026-05-05 23:02 | 47.71506 | -78.25669 | 35625 ft | 467 kts | 310° |
| 2026-05-05 23:03 | 47.74770 | -78.29949 | 35629 ft | 467 kts | 310° |
| 2026-05-05 23:03 | 47.78717 | -78.35142 | 35635 ft | 467 kts | 310° |
| 2026-05-05 23:04 | 47.83560 | -78.41514 | 35634 ft | 465 kts | 310° |
| 2026-05-05 23:04 | 47.88404 | -78.47918 | 35636 ft | 466 kts | 310° |
| 2026-05-05 23:05 | 47.93265 | -78.54337 | 35634 ft | 467 kts | 310° |
| 2026-05-05 23:05 | 47.98110 | -78.60762 | 35634 ft | 465 kts | 310° |
| 2026-05-05 23:06 | 48.02919 | -78.67168 | 35645 ft | 470 kts | 311° |
| 2026-05-05 23:06 | 48.07826 | -78.73724 | 35643 ft | 474 kts | 311° |
| 2026-05-05 23:07 | 48.12749 | -78.80299 | 35640 ft | 474 kts | 311° |
| 2026-05-05 23:07 | 48.17650 | -78.86867 | 35640 ft | 472 kts | 311° |
| 2026-05-05 23:08 | 48.20922 | -78.91263 | 35640 ft | 473 kts | 311° |
| 2026-05-05 23:08 | 48.24918 | -78.96643 | 35640 ft | 473 kts | 311° |
| 2026-05-05 23:09 | 48.29817 | -79.03256 | 35641 ft | 474 kts | 311° |
| 2026-05-05 23:09 | 48.34726 | -79.09900 | 35642 ft | 475 kts | 311° |
| 2026-05-05 23:10 | 48.39634 | -79.16560 | 35643 ft | 475 kts | 311° |
| 2026-05-05 23:10 | 48.44508 | -79.23193 | 35643 ft | 476 kts | 311° |
| 2026-05-05 23:11 | 48.49417 | -79.29892 | 35644 ft | 476 kts | 311° |
| 2026-05-05 23:11 | 48.54318 | -79.36597 | 35644 ft | 475 kts | 311° |
| 2026-05-05 23:12 | 48.59218 | -79.43321 | 35644 ft | 475 kts | 311° |
| 2026-05-05 23:12 | 48.64117 | -79.50060 | 35639 ft | 476 kts | 311° |
| 2026-05-05 23:13 | 48.67356 | -79.54526 | 35638 ft | 476 kts | 311° |
| 2026-05-05 23:13 | 48.71348 | -79.60043 | 35637 ft | 476 kts | 311° |
| 2026-05-05 23:14 | 48.76245 | -79.66823 | 35635 ft | 476 kts | 311° |
| 2026-05-05 23:14 | 48.81169 | -79.73588 | 35633 ft | 477 kts | 311° |
| 2026-05-05 23:15 | 48.86059 | -79.80412 | 35631 ft | 477 kts | 311° |
| 2026-05-05 23:15 | 48.90942 | -79.87262 | 35631 ft | 478 kts | 311° |
| 2026-05-05 23:16 | 48.95807 | -79.94100 | 35632 ft | 479 kts | 311° |
| 2026-05-05 23:16 | 49.00335 | -80.01451 | 35629 ft | 473 kts | 301° |
| 2026-05-05 23:17 | 49.03516 | -80.10169 | 35630 ft | 469 kts | 290° |
| 2026-05-05 23:17 | 49.06080 | -80.19189 | 35630 ft | 465 kts | 289° |
| 2026-05-05 23:18 | 49.07799 | -80.25231 | 35631 ft | 465 kts | 289° |
| 2026-05-05 23:18 | 49.09756 | -80.31936 | 35638 ft | 465 kts | 290° |
| 2026-05-05 23:19 | 49.12426 | -80.40951 | 35639 ft | 466 kts | 290° |
| 2026-05-05 23:19 | 49.15105 | -80.49916 | 35639 ft | 467 kts | 291° |
| 2026-05-05 23:20 | 49.17873 | -80.58895 | 35639 ft | 467 kts | 291° |
| 2026-05-05 23:20 | 49.20612 | -80.67911 | 35636 ft | 467 kts | 291° |
| 2026-05-05 23:21 | 49.23334 | -80.76970 | 35635 ft | 467 kts | 291° |
| 2026-05-05 23:21 | 49.26038 | -80.86026 | 35635 ft | 468 kts | 290° |
| 2026-05-05 23:22 | 49.28730 | -80.95089 | 35633 ft | 467 kts | 290° |
| 2026-05-05 23:22 | 49.31399 | -81.04110 | 35632 ft | 467 kts | 290° |
| 2026-05-05 23:23 | 49.33190 | -81.10181 | 35631 ft | 468 kts | 291° |
| 2026-05-05 23:23 | 49.35158 | -81.16872 | 35630 ft | 468 kts | 290° |
| 2026-05-05 23:24 | 49.37834 | -81.26001 | 35629 ft | 468 kts | 291° |
| 2026-05-05 23:24 | 49.40496 | -81.35118 | 35628 ft | 469 kts | 291° |
| 2026-05-05 23:25 | 49.43158 | -81.44268 | 35623 ft | 469 kts | 291° |
| 2026-05-05 23:25 | 49.45814 | -81.53434 | 35618 ft | 469 kts | 291° |
| 2026-05-05 23:26 | 49.48451 | -81.62567 | 35617 ft | 470 kts | 291° |
| 2026-05-05 23:26 | 49.51099 | -81.71774 | 35618 ft | 471 kts | 291° |
| 2026-05-05 23:27 | 49.53747 | -81.81014 | 35618 ft | 472 kts | 291° |
| 2026-05-05 23:27 | 49.56389 | -81.90274 | 35617 ft | 473 kts | 291° |
| 2026-05-05 23:28 | 49.58158 | -81.96492 | 35617 ft | 473 kts | 291° |
| 2026-05-05 23:28 | 49.60116 | -82.03394 | 35618 ft | 473 kts | 291° |
| 2026-05-05 23:29 | 49.62746 | -82.12696 | 35618 ft | 473 kts | 291° |
| 2026-05-05 23:29 | 49.65364 | -82.21992 | 35617 ft | 472 kts | 291° |
| 2026-05-05 23:30 | 49.67960 | -82.31244 | 35618 ft | 472 kts | 291° |
| 2026-05-05 23:30 | 49.70564 | -82.40566 | 35618 ft | 472 kts | 291° |
| 2026-05-05 23:31 | 49.73161 | -82.49895 | 35621 ft | 472 kts | 290° |
| 2026-05-05 23:31 | 49.75747 | -82.59223 | 35621 ft | 471 kts | 290° |
| 2026-05-05 23:32 | 49.78321 | -82.68545 | 35620 ft | 471 kts | 290° |
| 2026-05-05 23:32 | 49.80886 | -82.77873 | 35621 ft | 471 kts | 290° |
| 2026-05-05 23:33 | 49.82581 | -82.84055 | 35621 ft | 470 kts | 290° |
| 2026-05-05 23:33 | 49.84435 | -82.90836 | 35622 ft | 470 kts | 290° |
| 2026-05-05 23:34 | 49.86980 | -83.00177 | 35622 ft | 470 kts | 290° |
| 2026-05-05 23:34 | 49.89519 | -83.09535 | 35622 ft | 470 kts | 290° |
| 2026-05-05 23:35 | 49.92035 | -83.18846 | 35622 ft | 470 kts | 290° |
| 2026-05-05 23:35 | 49.94557 | -83.28218 | 35623 ft | 471 kts | 290° |
| 2026-05-05 23:36 | 49.97075 | -83.37611 | 35626 ft | 471 kts | 290° |
| 2026-05-05 23:36 | 49.99587 | -83.47018 | 35627 ft | 472 kts | 290° |
| 2026-05-05 23:37 | 50.02100 | -83.56467 | 35627 ft | 474 kts | 290° |
| 2026-05-05 23:37 | 50.04621 | -83.65989 | 35628 ft | 476 kts | 290° |
| 2026-05-05 23:38 | 50.06283 | -83.72288 | 35628 ft | 476 kts | 290° |
| 2026-05-05 23:38 | 50.08287 | -83.79906 | 35628 ft | 474 kts | 290° |
| 2026-05-05 23:39 | 50.10780 | -83.89416 | 35630 ft | 474 kts | 290° |
| 2026-05-05 23:39 | 50.13264 | -83.98932 | 35629 ft | 474 kts | 290° |
| 2026-05-05 23:40 | 50.15744 | -84.08471 | 35629 ft | 474 kts | 290° |
| 2026-05-05 23:40 | 50.18198 | -84.17956 | 35629 ft | 474 kts | 290° |
| 2026-05-05 23:41 | 50.20661 | -84.27508 | 35630 ft | 474 kts | 290° |
| 2026-05-05 23:41 | 50.23119 | -84.37086 | 35630 ft | 475 kts | 290° |
| 2026-05-05 23:42 | 50.25569 | -84.46671 | 35630 ft | 475 kts | 290° |
| 2026-05-05 23:42 | 50.28006 | -84.56244 | 35629 ft | 475 kts | 290° |
| 2026-05-05 23:43 | 50.29638 | -84.62679 | 35628 ft | 476 kts | 290° |
| 2026-05-05 23:43 | 50.31380 | -84.69571 | 35623 ft | 477 kts | 290° |
| 2026-05-05 23:44 | 50.33814 | -84.79231 | 35626 ft | 477 kts | 290° |
| 2026-05-05 23:44 | 50.36224 | -84.88839 | 35667 ft | 477 kts | 290° |
| 2026-05-05 23:45 | 50.38645 | -84.98530 | 35668 ft | 478 kts | 290° |
| 2026-05-05 23:45 | 50.41058 | -85.08235 | 35668 ft | 477 kts | 290° |
| 2026-05-05 23:46 | 50.43462 | -85.17946 | 35667 ft | 477 kts | 290° |
| 2026-05-05 23:46 | 50.45864 | -85.27687 | 35667 ft | 477 kts | 290° |
| 2026-05-05 23:47 | 50.48234 | -85.37347 | 35666 ft | 477 kts | 290° |
| 2026-05-05 23:47 | 50.50609 | -85.47064 | 35666 ft | 476 kts | 290° |
| 2026-05-05 23:48 | 50.52166 | -85.53461 | 35665 ft | 476 kts | 290° |
| 2026-05-05 23:48 | 50.53997 | -85.61004 | 35665 ft | 476 kts | 290° |
| 2026-05-05 23:49 | 50.56351 | -85.70742 | 35664 ft | 476 kts | 290° |
| 2026-05-05 23:49 | 50.58299 | -85.78836 | 35664 ft | 476 kts | 290° |
| 2026-05-05 23:50 | 50.61015 | -85.90165 | 35662 ft | 476 kts | 290° |
| 2026-05-05 23:50 | 50.62952 | -85.98283 | 35662 ft | 476 kts | 290° |
| 2026-05-05 23:51 | 50.65272 | -86.08048 | 35661 ft | 476 kts | 290° |
| 2026-05-05 23:51 | 50.67599 | -86.17885 | 35660 ft | 476 kts | 290° |
| 2026-05-05 23:52 | 50.69889 | -86.27608 | 35684 ft | 476 kts | 290° |
| 2026-05-05 23:52 | 50.72193 | -86.37435 | 35685 ft | 477 kts | 290° |
| 2026-05-05 23:53 | 50.73727 | -86.44006 | 35688 ft | 477 kts | 290° |
| 2026-05-05 23:53 | 50.75439 | -86.51361 | 35689 ft | 478 kts | 290° |
| 2026-05-05 23:54 | 50.77723 | -86.61213 | 35688 ft | 478 kts | 290° |
| 2026-05-05 23:54 | 50.80002 | -86.71089 | 35688 ft | 478 kts | 290° |
| 2026-05-05 23:55 | 50.82273 | -86.80976 | 35688 ft | 478 kts | 290° |
| 2026-05-05 23:55 | 50.84522 | -86.90811 | 35688 ft | 478 kts | 290° |
| 2026-05-05 23:56 | 50.86777 | -87.00718 | 35689 ft | 478 kts | 290° |
| 2026-05-05 23:56 | 50.89023 | -87.10634 | 35692 ft | 479 kts | 290° |
| 2026-05-05 23:57 | 50.91263 | -87.20572 | 35693 ft | 479 kts | 290° |
| 2026-05-05 23:57 | 50.93494 | -87.30515 | 35693 ft | 479 kts | 290° |
| 2026-05-05 23:58 | 50.94969 | -87.37113 | 35693 ft | 479 kts | 289° |
| 2026-05-05 23:58 | 50.96662 | -87.44718 | 35693 ft | 479 kts | 289° |
| 2026-05-05 23:59 | 50.98861 | -87.54631 | 35693 ft | 479 kts | 289° |
| 2026-05-05 23:59 | 51.01065 | -87.64615 | 35693 ft | 479 kts | 289° |
| 2026-05-06 00:00 | 51.03260 | -87.74608 | 35694 ft | 479 kts | 289° |
| 2026-05-06 00:00 | 51.05447 | -87.84609 | 35694 ft | 479 kts | 289° |
| 2026-05-06 00:01 | 51.07626 | -87.94624 | 35694 ft | 480 kts | 289° |
| 2026-05-06 00:01 | 51.09798 | -88.04660 | 35710 ft | 480 kts | 289° |
| 2026-05-06 00:02 | 51.11949 | -88.14644 | 35712 ft | 479 kts | 289° |
| 2026-05-06 00:02 | 51.14104 | -88.24693 | 35712 ft | 479 kts | 289° |
| 2026-05-06 00:03 | 51.15542 | -88.31429 | 35713 ft | 479 kts | 289° |
| 2026-05-06 00:03 | 51.17113 | -88.38812 | 35713 ft | 479 kts | 289° |
| 2026-05-06 00:04 | 51.19450 | -88.49848 | 35715 ft | 480 kts | 289° |
| 2026-05-06 00:04 | 51.21576 | -88.59938 | 35716 ft | 480 kts | 289° |
| 2026-05-06 00:05 | 51.24753 | -88.75109 | 35718 ft | 481 kts | 289° |
| 2026-05-06 00:06 | 51.26859 | -88.85232 | 35720 ft | 480 kts | 289° |
| 2026-05-06 00:06 | 51.28948 | -88.95325 | 35722 ft | 480 kts | 289° |
| 2026-05-06 00:07 | 51.31037 | -89.05468 | 35725 ft | 480 kts | 289° |
| 2026-05-06 00:07 | 51.33122 | -89.15642 | 35730 ft | 481 kts | 289° |
| 2026-05-06 00:08 | 51.35183 | -89.25750 | 35736 ft | 481 kts | 288° |
| 2026-05-06 00:08 | 51.35964 | -89.29592 | 35737 ft | 481 kts | 288° |
| 2026-05-06 00:09 | 51.38026 | -89.39780 | 35739 ft | 482 kts | 288° |
| 2026-05-06 00:09 | 51.40087 | -89.50013 | 35741 ft | 482 kts | 288° |
| 2026-05-06 00:10 | 51.41841 | -89.58501 | 35743 ft | 482 kts | 289° |
| 2026-05-06 00:10 | 51.44215 | -89.70412 | 35746 ft | 483 kts | 288° |
| 2026-05-06 00:11 | 51.45903 | -89.79025 | 35747 ft | 483 kts | 288° |
| 2026-05-06 00:11 | 51.47901 | -89.89254 | 35747 ft | 484 kts | 288° |
| 2026-05-06 00:12 | 51.49917 | -89.99568 | 35749 ft | 484 kts | 288° |
| 2026-05-06 00:12 | 51.51640 | -90.10001 | 35750 ft | 484 kts | 283° |
| 2026-05-06 00:13 | 51.53052 | -90.20585 | 35750 ft | 484 kts | 282° |
| 2026-05-06 00:13 | 51.53705 | -90.25537 | 35750 ft | 484 kts | 283° |
| 2026-05-06 00:14 | 51.55132 | -90.36115 | 35750 ft | 484 kts | 283° |
| 2026-05-06 00:14 | 51.56572 | -90.46675 | 35751 ft | 484 kts | 283° |
| 2026-05-06 00:15 | 51.58023 | -90.57176 | 35752 ft | 484 kts | 284° |
| 2026-05-06 00:15 | 51.59565 | -90.67694 | 35753 ft | 483 kts | 284° |
| 2026-05-06 00:16 | 51.61061 | -90.78234 | 35755 ft | 483 kts | 283° |
| 2026-05-06 00:16 | 51.62526 | -90.88787 | 35757 ft | 483 kts | 283° |
| 2026-05-06 00:17 | 51.63975 | -90.99355 | 35759 ft | 483 kts | 283° |
| 2026-05-06 00:17 | 51.65409 | -91.09924 | 35761 ft | 483 kts | 283° |
| 2026-05-06 00:18 | 51.66831 | -91.20479 | 35763 ft | 483 kts | 283° |
| 2026-05-06 00:18 | 51.67437 | -91.24998 | 35764 ft | 483 kts | 282° |
| 2026-05-06 00:19 | 51.68847 | -91.35585 | 35766 ft | 483 kts | 282° |
| 2026-05-06 00:19 | 51.70249 | -91.46190 | 35769 ft | 484 kts | 282° |
| 2026-05-06 00:20 | 51.71644 | -91.56819 | 35771 ft | 484 kts | 282° |
| 2026-05-06 00:20 | 51.73028 | -91.67440 | 35773 ft | 484 kts | 282° |
| 2026-05-06 00:21 | 51.74405 | -91.78094 | 35775 ft | 485 kts | 282° |
| 2026-05-06 00:21 | 51.75772 | -91.88747 | 35805 ft | 485 kts | 282° |
| 2026-05-06 00:22 | 51.77131 | -91.99425 | 35854 ft | 485 kts | 282° |
| 2026-05-06 00:22 | 51.78481 | -92.10110 | 35862 ft | 486 kts | 282° |
| 2026-05-06 00:23 | 51.79813 | -92.20731 | 35863 ft | 485 kts | 282° |
| 2026-05-06 00:23 | 51.80431 | -92.25688 | 35864 ft | 485 kts | 282° |
| 2026-05-06 00:24 | 51.81749 | -92.36325 | 35865 ft | 485 kts | 282° |
| 2026-05-06 00:24 | 51.83063 | -92.47012 | 35866 ft | 484 kts | 282° |
| 2026-05-06 00:25 | 51.84367 | -92.57701 | 35868 ft | 484 kts | 282° |
| 2026-05-06 00:25 | 51.85661 | -92.68400 | 35869 ft | 484 kts | 282° |
| 2026-05-06 00:26 | 51.86945 | -92.79096 | 35870 ft | 484 kts | 281° |
| 2026-05-06 00:26 | 51.88217 | -92.89781 | 35876 ft | 484 kts | 281° |
| 2026-05-06 00:27 | 51.89482 | -93.00498 | 35878 ft | 485 kts | 281° |
| 2026-05-06 00:27 | 51.90731 | -93.11160 | 35883 ft | 485 kts | 281° |
| 2026-05-06 00:28 | 51.91979 | -93.21903 | 35883 ft | 485 kts | 281° |
| 2026-05-06 00:28 | 51.92483 | -93.26272 | 35884 ft | 485 kts | 281° |
| 2026-05-06 00:29 | 51.93718 | -93.37032 | 35884 ft | 486 kts | 281° |
| 2026-05-06 00:29 | 51.94943 | -93.47798 | 35898 ft | 486 kts | 281° |
| 2026-05-06 00:30 | 51.96162 | -93.58602 | 35898 ft | 486 kts | 281° |
| 2026-05-06 00:30 | 51.97362 | -93.69340 | 35899 ft | 487 kts | 281° |
| 2026-05-06 00:31 | 51.98562 | -93.80157 | 35899 ft | 487 kts | 281° |
| 2026-05-06 00:31 | 51.99753 | -93.91001 | 35904 ft | 487 kts | 281° |
| 2026-05-06 00:32 | 52.00927 | -94.01773 | 35905 ft | 487 kts | 281° |
| 2026-05-06 00:32 | 52.02097 | -94.12619 | 35905 ft | 487 kts | 281° |
| 2026-05-06 00:33 | 52.03258 | -94.23467 | 35906 ft | 488 kts | 281° |
| 2026-05-06 00:33 | 52.03743 | -94.28038 | 35906 ft | 488 kts | 281° |
| 2026-05-06 00:34 | 52.04892 | -94.38911 | 35907 ft | 488 kts | 281° |
| 2026-05-06 00:34 | 52.06022 | -94.49714 | 35909 ft | 488 kts | 281° |